sensor_id;sensor_type;location;lat;lon;timestamp;P1;durP1;ratioP1;P2;durP2;ratioP2
15116;SDS011;7659;51.038;13.786;2023-08-31T00:01:39;5.25;;;3.10;;
15116;SDS011;7659;51.038;13.786;2023-08-31T00:04:05;4.88;;;2.95;;
15116;SDS011;7659;51.038;13.786;2023-08-31T00:06:33;5.80;;;3.40;;
15116;SDS011;7659;51.038;13.786;2023-08-31T00:08:59;3.38;;;2.65;;
15116;SDS011;7659;51.038;13.786;2023-08-31T00:11:24;4.10;;;3.38;;
15116;SDS011;7659;51.038;13.786;2023-08-31T00:13:51;5.63;;;3.22;;
15116;SDS011;7659;51.038;13.786;2023-08-31T00:16:17;6.30;;;3.40;;
15116;SDS011;7659;51.038;13.786;2023-08-31T00:18:43;5.07;;;3.28;;
15116;SDS011;7659;51.038;13.786;2023-08-31T00:21:10;5.05;;;3.33;;
15116;SDS011;7659;51.038;13.786;2023-08-31T00:23:36;5.75;;;3.33;;
15116;SDS011;7659;51.038;13.786;2023-08-31T00:26:02;4.60;;;3.45;;
15116;SDS011;7659;51.038;13.786;2023-08-31T00:28:28;4.93;;;2.78;;
15116;SDS011;7659;51.038;13.786;2023-08-31T00:30:54;4.90;;;3.33;;
15116;SDS011;7659;51.038;13.786;2023-08-31T00:33:19;4.18;;;3.08;;
15116;SDS011;7659;51.038;13.786;2023-08-31T00:35:44;4.18;;;3.10;;
15116;SDS011;7659;51.038;13.786;2023-08-31T00:38:13;6.63;;;3.25;;
15116;SDS011;7659;51.038;13.786;2023-08-31T00:40:42;10.45;;;3.25;;
15116;SDS011;7659;51.038;13.786;2023-08-31T00:43:10;4.72;;;3.30;;
15116;SDS011;7659;51.038;13.786;2023-08-31T00:45:36;4.20;;;3.28;;
15116;SDS011;7659;51.038;13.786;2023-08-31T00:48:03;6.25;;;3.30;;
15116;SDS011;7659;51.038;13.786;2023-08-31T00:50:28;4.03;;;2.70;;
15116;SDS011;7659;51.038;13.786;2023-08-31T00:52:55;6.18;;;3.08;;
15116;SDS011;7659;51.038;13.786;2023-08-31T00:55:20;5.68;;;2.97;;
15116;SDS011;7659;51.038;13.786;2023-08-31T00:57:46;3.50;;;3.17;;
15116;SDS011;7659;51.038;13.786;2023-08-31T01:00:13;5.22;;;3.03;;
15116;SDS011;7659;51.038;13.786;2023-08-31T01:05:29;3.42;;;2.90;;
15116;SDS011;7659;51.038;13.786;2023-08-31T01:13:17;5.20;;;3.13;;
15116;SDS011;7659;51.038;13.786;2023-08-31T01:15:45;3.28;;;2.97;;
15116;SDS011;7659;51.038;13.786;2023-08-31T01:18:11;4.05;;;3.10;;
15116;SDS011;7659;51.038;13.786;2023-08-31T01:20:58;4.72;;;3.20;;
15116;SDS011;7659;51.038;13.786;2023-08-31T01:23:29;3.30;;;2.75;;
15116;SDS011;7659;51.038;13.786;2023-08-31T01:25:56;4.88;;;2.80;;
15116;SDS011;7659;51.038;13.786;2023-08-31T01:28:22;3.05;;;2.53;;
15116;SDS011;7659;51.038;13.786;2023-08-31T01:30:48;4.60;;;3.10;;
15116;SDS011;7659;51.038;13.786;2023-08-31T01:33:13;3.72;;;2.15;;
15116;SDS011;7659;51.038;13.786;2023-08-31T01:35:43;3.03;;;2.47;;
15116;SDS011;7659;51.038;13.786;2023-08-31T01:38:10;3.25;;;2.25;;
15116;SDS011;7659;51.038;13.786;2023-08-31T01:40:42;3.15;;;2.30;;
15116;SDS011;7659;51.038;13.786;2023-08-31T01:43:09;3.13;;;2.38;;
15116;SDS011;7659;51.038;13.786;2023-08-31T01:45:35;3.67;;;2.33;;
15116;SDS011;7659;51.038;13.786;2023-08-31T01:48:03;2.95;;;2.10;;
15116;SDS011;7659;51.038;13.786;2023-08-31T01:50:29;2.33;;;1.80;;
15116;SDS011;7659;51.038;13.786;2023-08-31T01:52:54;1.95;;;1.75;;
15116;SDS011;7659;51.038;13.786;2023-08-31T01:55:21;3.55;;;1.58;;
15116;SDS011;7659;51.038;13.786;2023-08-31T01:57:47;1.60;;;1.50;;
15116;SDS011;7659;51.038;13.786;2023-08-31T02:00:18;3.38;;;1.30;;
15116;SDS011;7659;51.038;13.786;2023-08-31T02:02:46;2.53;;;1.60;;
15116;SDS011;7659;51.038;13.786;2023-08-31T02:05:12;2.17;;;1.83;;
15116;SDS011;7659;51.038;13.786;2023-08-31T02:07:38;1.70;;;1.48;;
15116;SDS011;7659;51.038;13.786;2023-08-31T02:10:05;3.05;;;1.70;;
15116;SDS011;7659;51.038;13.786;2023-08-31T02:12:34;1.92;;;1.73;;
15116;SDS011;7659;51.038;13.786;2023-08-31T02:15:01;1.63;;;1.52;;
15116;SDS011;7659;51.038;13.786;2023-08-31T02:17:26;6.13;;;2.72;;
15116;SDS011;7659;51.038;13.786;2023-08-31T02:19:52;2.95;;;2.15;;
15116;SDS011;7659;51.038;13.786;2023-08-31T02:22:18;3.15;;;1.70;;
15116;SDS011;7659;51.038;13.786;2023-08-31T02:24:43;1.58;;;1.42;;
15116;SDS011;7659;51.038;13.786;2023-08-31T02:27:10;3.92;;;1.80;;
15116;SDS011;7659;51.038;13.786;2023-08-31T02:29:35;1.70;;;1.60;;
15116;SDS011;7659;51.038;13.786;2023-08-31T02:32:04;3.47;;;1.90;;
15116;SDS011;7659;51.038;13.786;2023-08-31T02:34:30;2.95;;;1.45;;
15116;SDS011;7659;51.038;13.786;2023-08-31T02:36:55;1.90;;;1.50;;
15116;SDS011;7659;51.038;13.786;2023-08-31T02:39:21;2.03;;;1.65;;
15116;SDS011;7659;51.038;13.786;2023-08-31T02:41:46;2.60;;;1.80;;
15116;SDS011;7659;51.038;13.786;2023-08-31T02:44:12;1.98;;;1.67;;
15116;SDS011;7659;51.038;13.786;2023-08-31T02:46:37;1.95;;;1.70;;
15116;SDS011;7659;51.038;13.786;2023-08-31T02:49:04;2.05;;;1.42;;
15116;SDS011;7659;51.038;13.786;2023-08-31T02:51:30;2.00;;;1.50;;
15116;SDS011;7659;51.038;13.786;2023-08-31T02:53:55;1.63;;;1.42;;
15116;SDS011;7659;51.038;13.786;2023-08-31T02:56:21;4.90;;;1.50;;
15116;SDS011;7659;51.038;13.786;2023-08-31T02:58:46;3.63;;;1.33;;
15116;SDS011;7659;51.038;13.786;2023-08-31T03:01:12;5.18;;;1.95;;
15116;SDS011;7659;51.038;13.786;2023-08-31T03:03:40;1.88;;;1.67;;
15116;SDS011;7659;51.038;13.786;2023-08-31T03:06:07;1.42;;;1.33;;
15116;SDS011;7659;51.038;13.786;2023-08-31T03:08:33;3.80;;;1.50;;
15116;SDS011;7659;51.038;13.786;2023-08-31T03:10:59;3.65;;;1.50;;
15116;SDS011;7659;51.038;13.786;2023-08-31T03:13:24;1.58;;;1.42;;
15116;SDS011;7659;51.038;13.786;2023-08-31T03:15:50;1.67;;;1.30;;
15116;SDS011;7659;51.038;13.786;2023-08-31T03:18:15;2.08;;;1.50;;
15116;SDS011;7659;51.038;13.786;2023-08-31T03:20:41;2.13;;;1.30;;
15116;SDS011;7659;51.038;13.786;2023-08-31T03:23:06;2.58;;;1.30;;
15116;SDS011;7659;51.038;13.786;2023-08-31T03:25:32;2.97;;;1.10;;
15116;SDS011;7659;51.038;13.786;2023-08-31T03:27:57;3.83;;;1.40;;
15116;SDS011;7659;51.038;13.786;2023-08-31T03:30:23;1.58;;;1.20;;
15116;SDS011;7659;51.038;13.786;2023-08-31T03:32:49;3.30;;;1.00;;
15116;SDS011;7659;51.038;13.786;2023-08-31T03:35:15;2.33;;;1.33;;
15116;SDS011;7659;51.038;13.786;2023-08-31T03:37:42;1.70;;;1.10;;
15116;SDS011;7659;51.038;13.786;2023-08-31T03:40:08;1.65;;;1.20;;
15116;SDS011;7659;51.038;13.786;2023-08-31T03:42:34;1.50;;;1.05;;
15116;SDS011;7659;51.038;13.786;2023-08-31T03:45:00;1.50;;;0.80;;
15116;SDS011;7659;51.038;13.786;2023-08-31T03:47:26;1.65;;;1.15;;
15116;SDS011;7659;51.038;13.786;2023-08-31T03:49:52;2.13;;;1.45;;
15116;SDS011;7659;51.038;13.786;2023-08-31T03:52:17;2.15;;;1.05;;
15116;SDS011;7659;51.038;13.786;2023-08-31T03:54:43;2.47;;;1.33;;
15116;SDS011;7659;51.038;13.786;2023-08-31T03:57:08;3.03;;;1.35;;
15116;SDS011;7659;51.038;13.786;2023-08-31T03:59:34;1.20;;;1.10;;
15116;SDS011;7659;51.038;13.786;2023-08-31T04:02:00;1.60;;;1.00;;
15116;SDS011;7659;51.038;13.786;2023-08-31T04:04:27;4.43;;;1.67;;
15116;SDS011;7659;51.038;13.786;2023-08-31T04:06:53;3.22;;;1.30;;
15116;SDS011;7659;51.038;13.786;2023-08-31T04:09:18;2.55;;;1.80;;
15116;SDS011;7659;51.038;13.786;2023-08-31T04:11:44;3.88;;;1.63;;
15116;SDS011;7659;51.038;13.786;2023-08-31T04:14:09;2.08;;;1.30;;
15116;SDS011;7659;51.038;13.786;2023-08-31T04:16:35;1.80;;;1.25;;
15116;SDS011;7659;51.038;13.786;2023-08-31T04:19:00;3.38;;;1.88;;
15116;SDS011;7659;51.038;13.786;2023-08-31T04:21:26;1.80;;;1.20;;
15116;SDS011;7659;51.038;13.786;2023-08-31T04:23:51;1.50;;;1.20;;
15116;SDS011;7659;51.038;13.786;2023-08-31T04:26:17;2.10;;;1.40;;
15116;SDS011;7659;51.038;13.786;2023-08-31T04:28:42;2.33;;;1.50;;
15116;SDS011;7659;51.038;13.786;2023-08-31T04:31:08;2.78;;;1.38;;
15116;SDS011;7659;51.038;13.786;2023-08-31T04:33:34;1.30;;;1.05;;
15116;SDS011;7659;51.038;13.786;2023-08-31T04:36:00;3.03;;;1.25;;
15116;SDS011;7659;51.038;13.786;2023-08-31T04:38:25;5.22;;;1.42;;
15116;SDS011;7659;51.038;13.786;2023-08-31T04:40:50;3.67;;;1.40;;
15116;SDS011;7659;51.038;13.786;2023-08-31T04:43:16;4.82;;;1.67;;
15116;SDS011;7659;51.038;13.786;2023-08-31T04:45:42;4.25;;;1.60;;
15116;SDS011;7659;51.038;13.786;2023-08-31T04:48:07;3.22;;;1.70;;
15116;SDS011;7659;51.038;13.786;2023-08-31T04:50:33;2.75;;;1.40;;
15116;SDS011;7659;51.038;13.786;2023-08-31T04:52:58;3.05;;;1.40;;
15116;SDS011;7659;51.038;13.786;2023-08-31T04:55:23;3.22;;;1.90;;
15116;SDS011;7659;51.038;13.786;2023-08-31T04:57:50;2.13;;;1.60;;
15116;SDS011;7659;51.038;13.786;2023-08-31T05:00:16;4.38;;;1.85;;
15116;SDS011;7659;51.038;13.786;2023-08-31T05:02:41;2.17;;;1.63;;
15116;SDS011;7659;51.038;13.786;2023-08-31T05:05:08;2.63;;;1.85;;
15116;SDS011;7659;51.038;13.786;2023-08-31T05:07:34;2.88;;;2.03;;
15116;SDS011;7659;51.038;13.786;2023-08-31T05:09:59;3.25;;;1.80;;
15116;SDS011;7659;51.038;13.786;2023-08-31T05:12:24;3.60;;;1.73;;
15116;SDS011;7659;51.038;13.786;2023-08-31T05:14:50;3.58;;;1.50;;
15116;SDS011;7659;51.038;13.786;2023-08-31T05:17:15;6.35;;;1.83;;
15116;SDS011;7659;51.038;13.786;2023-08-31T05:19:41;5.50;;;1.70;;
15116;SDS011;7659;51.038;13.786;2023-08-31T05:22:06;5.55;;;1.63;;
15116;SDS011;7659;51.038;13.786;2023-08-31T05:24:32;7.35;;;2.00;;
15116;SDS011;7659;51.038;13.786;2023-08-31T05:26:57;4.72;;;1.90;;
15116;SDS011;7659;51.038;13.786;2023-08-31T05:29:23;4.63;;;1.65;;
15116;SDS011;7659;51.038;13.786;2023-08-31T05:31:48;5.32;;;2.28;;
15116;SDS011;7659;51.038;13.786;2023-08-31T05:34:20;5.53;;;2.00;;
15116;SDS011;7659;51.038;13.786;2023-08-31T05:36:45;3.08;;;2.00;;
15116;SDS011;7659;51.038;13.786;2023-08-31T05:39:11;3.80;;;1.80;;
15116;SDS011;7659;51.038;13.786;2023-08-31T05:41:39;5.13;;;2.33;;
15116;SDS011;7659;51.038;13.786;2023-08-31T05:44:05;4.13;;;2.15;;
15116;SDS011;7659;51.038;13.786;2023-08-31T05:46:30;2.72;;;1.90;;
15116;SDS011;7659;51.038;13.786;2023-08-31T05:48:56;7.88;;;2.33;;
15116;SDS011;7659;51.038;13.786;2023-08-31T05:51:21;3.47;;;1.92;;
15116;SDS011;7659;51.038;13.786;2023-08-31T05:53:47;6.05;;;2.03;;
15116;SDS011;7659;51.038;13.786;2023-08-31T05:56:12;4.60;;;2.03;;
15116;SDS011;7659;51.038;13.786;2023-08-31T05:58:37;3.45;;;2.00;;
15116;SDS011;7659;51.038;13.786;2023-08-31T06:01:03;4.90;;;2.50;;
15116;SDS011;7659;51.038;13.786;2023-08-31T06:03:29;5.22;;;2.13;;
15116;SDS011;7659;51.038;13.786;2023-08-31T06:05:56;4.75;;;2.10;;
15116;SDS011;7659;51.038;13.786;2023-08-31T06:08:22;4.32;;;1.60;;
15116;SDS011;7659;51.038;13.786;2023-08-31T06:10:48;2.95;;;2.00;;
15116;SDS011;7659;51.038;13.786;2023-08-31T06:13:13;4.25;;;1.95;;
15116;SDS011;7659;51.038;13.786;2023-08-31T06:15:39;3.72;;;1.85;;
15116;SDS011;7659;51.038;13.786;2023-08-31T06:18:05;3.83;;;1.60;;
15116;SDS011;7659;51.038;13.786;2023-08-31T06:20:30;5.90;;;2.30;;
15116;SDS011;7659;51.038;13.786;2023-08-31T06:22:56;4.60;;;2.10;;
15116;SDS011;7659;51.038;13.786;2023-08-31T06:25:22;6.68;;;2.10;;
15116;SDS011;7659;51.038;13.786;2023-08-31T06:27:48;8.32;;;2.47;;
15116;SDS011;7659;51.038;13.786;2023-08-31T06:30:13;3.35;;;1.88;;
15116;SDS011;7659;51.038;13.786;2023-08-31T06:32:44;3.83;;;2.28;;
15116;SDS011;7659;51.038;13.786;2023-08-31T06:35:10;4.15;;;1.90;;
15116;SDS011;7659;51.038;13.786;2023-08-31T06:37:37;4.50;;;2.05;;
15116;SDS011;7659;51.038;13.786;2023-08-31T06:40:02;6.47;;;2.58;;
15116;SDS011;7659;51.038;13.786;2023-08-31T06:42:29;4.45;;;1.75;;
15116;SDS011;7659;51.038;13.786;2023-08-31T06:44:54;5.50;;;2.30;;
15116;SDS011;7659;51.038;13.786;2023-08-31T06:47:22;5.15;;;1.90;;
15116;SDS011;7659;51.038;13.786;2023-08-31T06:49:47;5.80;;;2.28;;
15116;SDS011;7659;51.038;13.786;2023-08-31T06:52:13;4.20;;;2.10;;
15116;SDS011;7659;51.038;13.786;2023-08-31T06:54:38;5.47;;;2.90;;
15116;SDS011;7659;51.038;13.786;2023-08-31T06:57:04;4.22;;;2.58;;
15116;SDS011;7659;51.038;13.786;2023-08-31T06:59:29;3.72;;;2.40;;
15116;SDS011;7659;51.038;13.786;2023-08-31T07:01:55;4.63;;;2.00;;
15116;SDS011;7659;51.038;13.786;2023-08-31T07:04:20;8.15;;;2.17;;
15116;SDS011;7659;51.038;13.786;2023-08-31T07:06:46;7.57;;;2.45;;
15116;SDS011;7659;51.038;13.786;2023-08-31T07:09:11;6.15;;;2.80;;
15116;SDS011;7659;51.038;13.786;2023-08-31T07:11:36;8.25;;;2.60;;
15116;SDS011;7659;51.038;13.786;2023-08-31T07:14:02;3.38;;;2.25;;
15116;SDS011;7659;51.038;13.786;2023-08-31T07:16:28;4.00;;;1.88;;
15116;SDS011;7659;51.038;13.786;2023-08-31T07:18:53;4.35;;;2.28;;
15116;SDS011;7659;51.038;13.786;2023-08-31T07:21:19;3.88;;;1.92;;
15116;SDS011;7659;51.038;13.786;2023-08-31T07:23:45;4.20;;;1.73;;
15116;SDS011;7659;51.038;13.786;2023-08-31T07:26:10;6.15;;;1.77;;
15116;SDS011;7659;51.038;13.786;2023-08-31T07:28:36;3.28;;;2.00;;
15116;SDS011;7659;51.038;13.786;2023-08-31T07:31:04;5.95;;;1.95;;
15116;SDS011;7659;51.038;13.786;2023-08-31T07:33:30;6.45;;;2.80;;
15116;SDS011;7659;51.038;13.786;2023-08-31T07:36:00;4.03;;;1.98;;
15116;SDS011;7659;51.038;13.786;2023-08-31T07:38:26;4.18;;;1.88;;
15116;SDS011;7659;51.038;13.786;2023-08-31T07:40:52;5.70;;;1.90;;
15116;SDS011;7659;51.038;13.786;2023-08-31T07:43:18;6.35;;;1.70;;
15116;SDS011;7659;51.038;13.786;2023-08-31T07:45:43;5.68;;;1.92;;
15116;SDS011;7659;51.038;13.786;2023-08-31T07:48:09;3.50;;;2.15;;
15116;SDS011;7659;51.038;13.786;2023-08-31T07:50:34;7.68;;;1.67;;
15116;SDS011;7659;51.038;13.786;2023-08-31T07:53:00;9.55;;;2.00;;
15116;SDS011;7659;51.038;13.786;2023-08-31T07:55:25;4.22;;;2.50;;
15116;SDS011;7659;51.038;13.786;2023-08-31T07:57:51;5.40;;;2.17;;
15116;SDS011;7659;51.038;13.786;2023-08-31T08:00:16;6.13;;;1.95;;
15116;SDS011;7659;51.038;13.786;2023-08-31T08:02:42;7.20;;;1.92;;
15116;SDS011;7659;51.038;13.786;2023-08-31T08:05:07;3.30;;;1.45;;
15116;SDS011;7659;51.038;13.786;2023-08-31T08:07:33;5.22;;;1.80;;
15116;SDS011;7659;51.038;13.786;2023-08-31T08:09:58;3.78;;;1.60;;
15116;SDS011;7659;51.038;13.786;2023-08-31T08:12:24;5.30;;;1.70;;
15116;SDS011;7659;51.038;13.786;2023-08-31T08:14:50;3.90;;;1.88;;
15116;SDS011;7659;51.038;13.786;2023-08-31T08:17:16;3.35;;;1.33;;
15116;SDS011;7659;51.038;13.786;2023-08-31T08:19:41;3.47;;;1.80;;
15116;SDS011;7659;51.038;13.786;2023-08-31T08:22:07;3.05;;;1.55;;
15116;SDS011;7659;51.038;13.786;2023-08-31T08:24:32;4.65;;;1.63;;
15116;SDS011;7659;51.038;13.786;2023-08-31T08:26:58;4.13;;;1.67;;
15116;SDS011;7659;51.038;13.786;2023-08-31T08:29:24;4.40;;;1.52;;
15116;SDS011;7659;51.038;13.786;2023-08-31T08:31:50;5.70;;;1.70;;
15116;SDS011;7659;51.038;13.786;2023-08-31T08:34:15;3.88;;;1.75;;
15116;SDS011;7659;51.038;13.786;2023-08-31T08:36:41;3.80;;;1.77;;
15116;SDS011;7659;51.038;13.786;2023-08-31T08:39:06;5.00;;;1.58;;
15116;SDS011;7659;51.038;13.786;2023-08-31T08:41:32;6.13;;;1.67;;
15116;SDS011;7659;51.038;13.786;2023-08-31T08:44:01;6.35;;;1.30;;
15116;SDS011;7659;51.038;13.786;2023-08-31T08:46:26;10.07;;;2.28;;
15116;SDS011;7659;51.038;13.786;2023-08-31T08:48:52;6.00;;;1.90;;
15116;SDS011;7659;51.038;13.786;2023-08-31T08:51:19;5.00;;;1.67;;
15116;SDS011;7659;51.038;13.786;2023-08-31T08:53:45;6.75;;;1.95;;
15116;SDS011;7659;51.038;13.786;2023-08-31T08:56:11;4.70;;;1.40;;
15116;SDS011;7659;51.038;13.786;2023-08-31T08:58:37;7.95;;;1.63;;
15116;SDS011;7659;51.038;13.786;2023-08-31T09:01:02;5.30;;;1.70;;
15116;SDS011;7659;51.038;13.786;2023-08-31T09:03:29;6.78;;;1.77;;
15116;SDS011;7659;51.038;13.786;2023-08-31T09:05:54;5.72;;;1.55;;
15116;SDS011;7659;51.038;13.786;2023-08-31T09:08:26;5.30;;;1.98;;
15116;SDS011;7659;51.038;13.786;2023-08-31T09:10:51;3.53;;;1.50;;
15116;SDS011;7659;51.038;13.786;2023-08-31T09:13:18;3.78;;;1.33;;
15116;SDS011;7659;51.038;13.786;2023-08-31T09:15:44;3.03;;;1.45;;
15116;SDS011;7659;51.038;13.786;2023-08-31T09:18:29;2.28;;;1.20;;
15116;SDS011;7659;51.038;13.786;2023-08-31T09:20:55;3.67;;;1.40;;
15116;SDS011;7659;51.038;13.786;2023-08-31T09:23:24;2.38;;;1.38;;
15116;SDS011;7659;51.038;13.786;2023-08-31T09:25:53;3.75;;;1.25;;
15116;SDS011;7659;51.038;13.786;2023-08-31T09:28:20;10.68;;;1.92;;
15116;SDS011;7659;51.038;13.786;2023-08-31T09:30:46;3.20;;;1.10;;
15116;SDS011;7659;51.038;13.786;2023-08-31T09:33:16;4.13;;;1.52;;
15116;SDS011;7659;51.038;13.786;2023-08-31T09:35:56;4.65;;;1.60;;
15116;SDS011;7659;51.038;13.786;2023-08-31T09:38:22;3.55;;;1.30;;
15116;SDS011;7659;51.038;13.786;2023-08-31T09:40:47;1.95;;;1.20;;
15116;SDS011;7659;51.038;13.786;2023-08-31T09:43:25;2.35;;;1.08;;
15116;SDS011;7659;51.038;13.786;2023-08-31T09:45:50;3.92;;;1.40;;
15116;SDS011;7659;51.038;13.786;2023-08-31T09:48:17;2.50;;;1.50;;
15116;SDS011;7659;51.038;13.786;2023-08-31T09:50:44;7.82;;;1.50;;
15116;SDS011;7659;51.038;13.786;2023-08-31T09:53:11;2.75;;;1.45;;
15116;SDS011;7659;51.038;13.786;2023-08-31T09:55:38;5.22;;;1.67;;
15116;SDS011;7659;51.038;13.786;2023-08-31T09:58:04;7.07;;;1.80;;
15116;SDS011;7659;51.038;13.786;2023-08-31T10:00:31;3.45;;;1.70;;
15116;SDS011;7659;51.038;13.786;2023-08-31T10:03:00;3.33;;;1.55;;
15116;SDS011;7659;51.038;13.786;2023-08-31T10:05:26;3.47;;;1.27;;
15116;SDS011;7659;51.038;13.786;2023-08-31T10:07:52;3.75;;;1.85;;
15116;SDS011;7659;51.038;13.786;2023-08-31T10:10:18;5.72;;;1.40;;
15116;SDS011;7659;51.038;13.786;2023-08-31T10:12:44;2.90;;;1.40;;
15116;SDS011;7659;51.038;13.786;2023-08-31T10:15:11;4.68;;;1.80;;
15116;SDS011;7659;51.038;13.786;2023-08-31T10:17:37;4.35;;;1.67;;
15116;SDS011;7659;51.038;13.786;2023-08-31T10:20:04;2.90;;;1.40;;
15116;SDS011;7659;51.038;13.786;2023-08-31T10:22:31;1.63;;;1.15;;
15116;SDS011;7659;51.038;13.786;2023-08-31T10:24:57;2.70;;;1.50;;
15116;SDS011;7659;51.038;13.786;2023-08-31T10:27:25;3.30;;;1.33;;
15116;SDS011;7659;51.038;13.786;2023-08-31T10:29:52;2.58;;;1.40;;
15116;SDS011;7659;51.038;13.786;2023-08-31T10:32:17;4.25;;;1.75;;
15116;SDS011;7659;51.038;13.786;2023-08-31T10:35:05;3.65;;;1.48;;
15116;SDS011;7659;51.038;13.786;2023-08-31T10:37:31;5.25;;;1.48;;
15116;SDS011;7659;51.038;13.786;2023-08-31T10:40:09;4.57;;;1.25;;
15116;SDS011;7659;51.038;13.786;2023-08-31T10:42:46;1.80;;;1.13;;
15116;SDS011;7659;51.038;13.786;2023-08-31T10:45:13;5.43;;;1.65;;
15116;SDS011;7659;51.038;13.786;2023-08-31T10:47:41;2.97;;;1.02;;
15116;SDS011;7659;51.038;13.786;2023-08-31T10:50:19;2.80;;;1.10;;
15116;SDS011;7659;51.038;13.786;2023-08-31T10:52:45;1.67;;;0.90;;
15116;SDS011;7659;51.038;13.786;2023-08-31T10:55:11;4.25;;;0.88;;
15116;SDS011;7659;51.038;13.786;2023-08-31T10:57:37;4.85;;;0.80;;
15116;SDS011;7659;51.038;13.786;2023-08-31T11:00:03;2.08;;;0.98;;
15116;SDS011;7659;51.038;13.786;2023-08-31T11:02:30;2.22;;;1.10;;
15116;SDS011;7659;51.038;13.786;2023-08-31T11:05:12;4.38;;;0.90;;
15116;SDS011;7659;51.038;13.786;2023-08-31T11:07:40;3.67;;;0.90;;
15116;SDS011;7659;51.038;13.786;2023-08-31T11:12:40;3.38;;;0.95;;
15116;SDS011;7659;51.038;13.786;2023-08-31T11:15:06;3.08;;;1.20;;
15116;SDS011;7659;51.038;13.786;2023-08-31T11:17:32;3.45;;;1.00;;
15116;SDS011;7659;51.038;13.786;2023-08-31T11:19:58;9.68;;;1.08;;
15116;SDS011;7659;51.038;13.786;2023-08-31T11:22:24;3.45;;;1.27;;
15116;SDS011;7659;51.038;13.786;2023-08-31T11:24:49;12.25;;;1.10;;
15116;SDS011;7659;51.038;13.786;2023-08-31T11:27:16;7.68;;;1.20;;
15116;SDS011;7659;51.038;13.786;2023-08-31T11:29:43;3.88;;;0.93;;
15116;SDS011;7659;51.038;13.786;2023-08-31T11:32:09;3.83;;;0.80;;
15116;SDS011;7659;51.038;13.786;2023-08-31T11:34:35;1.25;;;0.73;;
15116;SDS011;7659;51.038;13.786;2023-08-31T11:37:04;5.93;;;0.70;;
15116;SDS011;7659;51.038;13.786;2023-08-31T11:39:30;3.72;;;0.70;;
15116;SDS011;7659;51.038;13.786;2023-08-31T11:41:56;2.88;;;0.80;;
15116;SDS011;7659;51.038;13.786;2023-08-31T11:44:22;4.93;;;1.00;;
15116;SDS011;7659;51.038;13.786;2023-08-31T11:46:48;2.97;;;0.68;;
15116;SDS011;7659;51.038;13.786;2023-08-31T11:49:15;1.65;;;0.70;;
15116;SDS011;7659;51.038;13.786;2023-08-31T11:51:41;7.53;;;0.75;;
15116;SDS011;7659;51.038;13.786;2023-08-31T11:54:06;2.67;;;0.63;;
15116;SDS011;7659;51.038;13.786;2023-08-31T11:56:39;2.55;;;0.68;;
15116;SDS011;7659;51.038;13.786;2023-08-31T11:59:08;3.70;;;1.00;;
15116;SDS011;7659;51.038;13.786;2023-08-31T12:01:37;1.77;;;0.90;;
15116;SDS011;7659;51.038;13.786;2023-08-31T12:04:09;1.17;;;0.40;;
15116;SDS011;7659;51.038;13.786;2023-08-31T12:06:34;5.70;;;0.90;;
15116;SDS011;7659;51.038;13.786;2023-08-31T12:09:00;5.45;;;0.80;;
15116;SDS011;7659;51.038;13.786;2023-08-31T12:11:25;1.95;;;0.80;;
15116;SDS011;7659;51.038;13.786;2023-08-31T12:13:51;0.95;;;0.75;;
15116;SDS011;7659;51.038;13.786;2023-08-31T12:16:16;2.25;;;0.57;;
15116;SDS011;7659;51.038;13.786;2023-08-31T12:18:43;5.25;;;0.70;;
15116;SDS011;7659;51.038;13.786;2023-08-31T12:21:08;1.05;;;0.63;;
15116;SDS011;7659;51.038;13.786;2023-08-31T12:23:34;5.03;;;1.20;;
15116;SDS011;7659;51.038;13.786;2023-08-31T12:26:00;1.55;;;0.70;;
15116;SDS011;7659;51.038;13.786;2023-08-31T12:28:26;3.72;;;0.90;;
15116;SDS011;7659;51.038;13.786;2023-08-31T12:30:52;1.55;;;0.70;;
15116;SDS011;7659;51.038;13.786;2023-08-31T12:33:18;2.53;;;0.93;;
15116;SDS011;7659;51.038;13.786;2023-08-31T12:35:44;3.28;;;0.98;;
15116;SDS011;7659;51.038;13.786;2023-08-31T12:38:09;1.85;;;0.80;;
15116;SDS011;7659;51.038;13.786;2023-08-31T12:40:35;1.42;;;0.70;;
15116;SDS011;7659;51.038;13.786;2023-08-31T12:43:01;1.35;;;1.05;;
15116;SDS011;7659;51.038;13.786;2023-08-31T12:45:26;6.38;;;0.90;;
15116;SDS011;7659;51.038;13.786;2023-08-31T12:47:52;2.97;;;0.90;;
15116;SDS011;7659;51.038;13.786;2023-08-31T12:50:17;2.25;;;1.00;;
15116;SDS011;7659;51.038;13.786;2023-08-31T12:52:43;2.55;;;1.13;;
15116;SDS011;7659;51.038;13.786;2023-08-31T12:55:14;7.15;;;1.00;;
15116;SDS011;7659;51.038;13.786;2023-08-31T12:57:40;4.78;;;0.90;;
15116;SDS011;7659;51.038;13.786;2023-08-31T13:00:09;3.75;;;1.00;;
15116;SDS011;7659;51.038;13.786;2023-08-31T13:02:39;1.50;;;1.00;;
15116;SDS011;7659;51.038;13.786;2023-08-31T13:05:04;2.78;;;1.00;;
15116;SDS011;7659;51.038;13.786;2023-08-31T13:07:31;5.72;;;0.75;;
15116;SDS011;7659;51.038;13.786;2023-08-31T13:09:57;3.65;;;0.90;;
15116;SDS011;7659;51.038;13.786;2023-08-31T13:12:23;3.92;;;1.00;;
15116;SDS011;7659;51.038;13.786;2023-08-31T13:14:49;3.08;;;0.70;;
15116;SDS011;7659;51.038;13.786;2023-08-31T13:17:14;2.15;;;1.00;;
15116;SDS011;7659;51.038;13.786;2023-08-31T13:19:40;3.13;;;0.95;;
15116;SDS011;7659;51.038;13.786;2023-08-31T13:22:05;2.35;;;0.47;;
15116;SDS011;7659;51.038;13.786;2023-08-31T13:24:30;3.70;;;1.02;;
15116;SDS011;7659;51.038;13.786;2023-08-31T13:26:56;1.48;;;0.70;;
15116;SDS011;7659;51.038;13.786;2023-08-31T13:29:22;1.25;;;0.93;;
15116;SDS011;7659;51.038;13.786;2023-08-31T13:31:47;8.25;;;1.90;;
15116;SDS011;7659;51.038;13.786;2023-08-31T13:34:13;1.35;;;0.70;;
15116;SDS011;7659;51.038;13.786;2023-08-31T13:36:40;2.70;;;0.80;;
15116;SDS011;7659;51.038;13.786;2023-08-31T13:39:06;1.45;;;0.73;;
15116;SDS011;7659;51.038;13.786;2023-08-31T13:41:32;2.50;;;0.70;;
15116;SDS011;7659;51.038;13.786;2023-08-31T13:43:58;2.15;;;0.80;;
15116;SDS011;7659;51.038;13.786;2023-08-31T13:46:23;1.08;;;0.80;;
15116;SDS011;7659;51.038;13.786;2023-08-31T13:48:49;2.17;;;0.75;;
15116;SDS011;7659;51.038;13.786;2023-08-31T13:51:14;3.08;;;0.95;;
15116;SDS011;7659;51.038;13.786;2023-08-31T13:53:40;3.08;;;0.82;;
15116;SDS011;7659;51.038;13.786;2023-08-31T13:56:05;1.42;;;0.80;;
15116;SDS011;7659;51.038;13.786;2023-08-31T13:58:31;2.55;;;0.80;;
15116;SDS011;7659;51.038;13.786;2023-08-31T14:00:56;1.30;;;0.90;;
15116;SDS011;7659;51.038;13.786;2023-08-31T14:03:22;1.90;;;0.75;;
15116;SDS011;7659;51.038;13.786;2023-08-31T14:05:48;1.02;;;0.73;;
15116;SDS011;7659;51.038;13.786;2023-08-31T14:08:14;1.50;;;0.60;;
15116;SDS011;7659;51.038;13.786;2023-08-31T14:10:40;1.73;;;0.90;;
15116;SDS011;7659;51.038;13.786;2023-08-31T14:13:05;1.63;;;0.77;;
15116;SDS011;7659;51.038;13.786;2023-08-31T14:15:31;1.75;;;0.80;;
15116;SDS011;7659;51.038;13.786;2023-08-31T14:17:56;3.15;;;1.17;;
15116;SDS011;7659;51.038;13.786;2023-08-31T14:20:22;4.82;;;1.40;;
15116;SDS011;7659;51.038;13.786;2023-08-31T14:22:48;4.32;;;1.27;;
15116;SDS011;7659;51.038;13.786;2023-08-31T14:25:14;6.38;;;1.45;;
15116;SDS011;7659;51.038;13.786;2023-08-31T14:27:39;3.08;;;1.00;;
15116;SDS011;7659;51.038;13.786;2023-08-31T14:30:05;2.40;;;1.05;;
15116;SDS011;7659;51.038;13.786;2023-08-31T14:32:31;2.28;;;1.00;;
15116;SDS011;7659;51.038;13.786;2023-08-31T14:34:56;2.80;;;1.30;;
15116;SDS011;7659;51.038;13.786;2023-08-31T14:37:22;3.55;;;1.05;;
15116;SDS011;7659;51.038;13.786;2023-08-31T14:39:47;3.72;;;1.40;;
15116;SDS011;7659;51.038;13.786;2023-08-31T14:42:13;2.13;;;1.40;;
15116;SDS011;7659;51.038;13.786;2023-08-31T14:44:40;5.65;;;1.85;;
15116;SDS011;7659;51.038;13.786;2023-08-31T14:47:06;4.68;;;1.27;;
15116;SDS011;7659;51.038;13.786;2023-08-31T14:49:31;3.78;;;1.55;;
15116;SDS011;7659;51.038;13.786;2023-08-31T14:51:57;2.75;;;1.50;;
15116;SDS011;7659;51.038;13.786;2023-08-31T14:54:22;3.15;;;1.20;;